This is the latest recevied weather packets stored in our database for station/object DN9EM-1. If no packets are shown the sender has not sent any weather packets the latest 1 day(s).
| Time | Temp. | Humidity | Pressure | Rain* | Wind** | Luminosity | Snow |
|---|---|---|---|---|---|---|---|
| 1778095562 | 11.11° C | 65% | 1012.2 hPa | 0 mm | - | - | - |
| 1778093141 | 11.67° C | 58% | 1011.7 hPa | 0 mm | - | - | - |
| 1778086550 | 12.22° C | 66% | 1010.8 hPa | 0 mm | - | - | - |
| 1778084129 | 13.33° C | 61% | 1010.7 hPa | 0 mm | - | - | - |
| 1778082924 | 13.33° C | 60% | 1010.7 hPa | 0 mm | - | - | - |
| 1778081773 | 13.33° C | 58% | 1011 hPa | 0 mm | - | - | - |
| 1778079960 | 13.89° C | 56% | 1010.8 hPa | 0 mm | - | - | - |
| 1778078749 | 13.89° C | 54% | 1010.9 hPa | 0 mm | - | - | - |
| 1778075725 | 13.89° C | 51% | 1010.9 hPa | 0 mm | - | - | - |
| 1778074574 | 13.89° C | 48% | 1010.8 hPa | 0 mm | - | - | - |
| 1778072761 | 13.89° C | 46% | 1010.7 hPa | 0 mm | - | - | - |
| 1778071550 | 14.44° C | 45% | 1010.6 hPa | 0 mm | - | - | - |
| 1778069737 | 15° C | 43% | 1010.4 hPa | 0 mm | - | - | - |
| 1778068526 | 14.44° C | 43% | 1010.3 hPa | 0 mm | - | - | - |
| 1778065563 | 13.89° C | 43% | 1010.3 hPa | 0 mm | - | - | - |
| 1778061328 | 12.78° C | 46% | 1010.6 hPa | 0 mm | - | - | - |
| 1778059574 | 12.78° C | 48% | 1010.6 hPa | 0 mm | - | - | - |
| 1778058972 | 12.78° C | 49% | 1010.6 hPa | 0 mm | - | - | - |
| 1778057153 | 11.67° C | 52% | 1010.7 hPa | 0 mm | - | - | - |
| 1778056550 | 11.67° C | 53% | 1010.6 hPa | 0 mm | - | - | - |
| 1778055948 | 11.67° C | 53% | 1010.6 hPa | 0 mm | - | - | - |
| 1778055339 | 11.67° C | 53% | 1010.6 hPa | 0 mm | - | - | - |
| 1778054736 | 11.11° C | 55% | 1010.6 hPa | 0 mm | - | - | - |
| 1778054129 | 11.11° C | 55% | 1010.4 hPa | 0 mm | - | - | - |
| 1778052315 | 10.56° C | 52% | 1010.6 hPa | 0 mm | - | - | - |
* Rain latest hour (hover to see other rain measurements)
** Current wind speed in m/s (hover to see current wind gust speed)